^^

Nearby METAR Reports

 

EGNV - Tees-Side, United Kingdom
Distance from station: SW 7mi, 11km
Updated: 08/07/2020 07:20
Few Clouds
Few Clouds
 Wind from varies
Wind: varies 3 mph , 6 km/h
Temperature: 12°C
Dew Point: 10°C
Humidity: 88%
Barometer: 1015 hPa
Clouds: Few Clouds
Visibility: 6 miles , 10 km
Cloud details: Few Clouds 610 m
2020/07/08 06:20 EGNV 080620Z VRB03KT 9999 FEW020 12/10 Q1015
EGXE - Leeming Raf, United Kingdom
Distance from station: SSW 23mi, 37km
Updated: 08/07/2020 06:50
Mostly cloudy
Mostly cloudy
 Wind from N
Wind: N 6 mph , 9 km/h
Temperature: 12°C
Dew Point: 10°C
Humidity: 88%
Barometer: 1014 hPa
Clouds: Mostly cloudy
Visibility: 6 miles , 10 km
Cloud details: Mostly cloudy 2134 m
2020/07/08 05:50 EGXE 080550Z AUTO 36005KT 9999 BKN070/// 12/10 Q1014
 
EGXZ - Topcliffe Raf, United Kingdom
Distance from station: S 27mi, 43km
Updated: 08/07/2020 06:50
Overcast
Overcast
 Wind from NW
Wind: NW 3 mph , 6 km/h
Temperature: 12°C
Dew Point: 11°C
Humidity: 94%
Barometer: 1014 hPa
Clouds: Overcast
Visibility: 6 miles , 10 km
Cloud details: Overcast 1524 m
2020/07/08 05:50 EGXZ 080550Z AUTO 31003KT 9999 OVC050/// 12/11 Q1014
EGNT - Newcastle, United Kingdom
Distance from station: NNW 34mi, 54km
Updated: 08/07/2020 07:20
Mostly cloudy
Mostly cloudy
 Wind from ENE
Wind: ENE 9 mph , 15 km/h
Temperature: 12°C
Dew Point: 10°C
Humidity: 88%
Barometer: 1015 hPa
Clouds: Mostly cloudy
Visibility: 6 miles , 10 km
Cloud details: Mostly cloudy 457 m
2020/07/08 06:20 EGNT 080620Z 07008KT 9999 BKN015 12/10 Q1015
 
EGXU - Linton-On-Ouse R, United Kingdom
Distance from station: S 37mi, 60km
Updated: 08/07/2020 06:50
Mist, Partly cloudy
Mist, Partly cloudy
 Wind from N
Wind: N 3 mph , 6 km/h
Temperature: 12°C
Dew Point: 11°C
Humidity: 94%
Barometer: 1014 hPa
Summary: Mist
Clouds: Partly cloudy
Visibility: 6 miles , 9 km
Cloud details: Mostly cloudy 1311 m
Partly cloudy 1829 m
2020/07/08 05:50 EGXU 080550Z AUTO 36003KT 9000 BR BKN043/// SCT060/// 12/11 Q1014
EGNM - Leeds And Bradfo, United Kingdom
Distance from station: SSW 52mi, 83km
Updated: 08/07/2020 07:20
Mist, Mostly cloudy
Mist, Mostly cloudy
 Wind from NE
Wind: NE 6 mph , 9 km/h
Temperature: 11°C
Dew Point: 11°C
Humidity: 100%
Barometer: 1014 hPa
Summary: Mist
Clouds: Mostly cloudy
Visibility: 2 miles , 3 km
Cloud details: Partly cloudy 61 m
Mostly cloudy 91 m
2020/07/08 06:20 EGNM 080620Z 04005KT 360V070 3000 BR SCT002 BKN003 11/11 Q1014
 
EGOM - Spadeadam, United Kingdom
Distance from station: WNW 58mi, 94km
Updated: 08/07/2020 06:50
Overcast
Overcast
 Wind from ENE
Wind: ENE 9 mph , 15 km/h
Temperature: 10°C
Wind Chill: 8°C
Dew Point: 9°C
Humidity: 94%
Barometer: 1014 hPa
Clouds: Overcast
Visibility: 6 miles , 10 km
Cloud details: Overcast 122 m
2020/07/08 05:50 EGOM 080550Z AUTO 07008KT 9999 OVC004/// 10/09 Q1014
EGCN - Doncaster Sheffi, United Kingdom
Distance from station: S 77mi, 124km
Updated: 08/07/2020 07:20
Light drizzle, Mist, Mostly cloudy
Light drizzle, Mist, Mostly cloudy
 Wind from NNE
Wind: NNE 8 mph , 13 km/h
Temperature: 12°C
Dew Point: 11°C
Humidity: 94%
Barometer: 1015 hPa
Summary: Light drizzle, Mist
Clouds: Mostly cloudy
Visibility: 2 miles , 3 km
Cloud details: Mostly cloudy 61 m
Mostly cloudy 457 m
2020/07/08 06:20 EGCN 080620Z 03007KT 2800 -DZ BR BKN002 BKN015 12/11 Q1015
 
EGNJ - Humberside, United Kingdom
Distance from station: SSE 80mi, 129km
Updated: 08/07/2020 07:20
Light drizzle, Mostly cloudy
Light drizzle, Mostly cloudy
 Wind from NE
Wind: NE 7 mph , 11 km/h
Temperature: 12°C
Dew Point: 11°C
Humidity: 94%
Barometer: 1014 hPa
Summary: Light Drizzle
Clouds: Mostly cloudy
Visibility: 3 miles , 4 km
Cloud details: Partly cloudy 122 m
Mostly cloudy 213 m
Mostly cloudy 335 m
2020/07/08 06:20 EGNJ 080620Z AUTO 05006KT 010V070 4300 -DZ SCT004/// BKN007/// BKN011/// 12/11 Q1014 REDZ
EGNH - Blackpool Airpor, United Kingdom
Distance from station: SW 90mi, 145km
Updated: 08/07/2020 07:20
Mostly cloudy
Mostly cloudy
 Wind from E
Wind: E 8 mph , 13 km/h
Temperature: 12°C
Dew Point: 11°C
Humidity: 94%
Barometer: 1014 hPa
Clouds: Mostly cloudy
Visibility: 6 miles , 10 km
Cloud details: Few Clouds 366 m
Mostly cloudy 823 m
2020/07/08 06:20 EGNH 080620Z 08007KT 9999 FEW012 BKN027 12/11 Q1014
 
EGXP - Scampton Raf, United Kingdom
Distance from station: SSE 94mi, 151km
Updated: 08/07/2020 06:50
Overcast
Overcast
 Wind from ENE
Wind: ENE 14 mph , 22 km/h
Temperature: 11°C
Dew Point: 11°C
Humidity: 100%
Barometer: 1013 hPa
Clouds: Overcast
Visibility: 2 miles , 4 km
Cloud details: Overcast 61 m
2020/07/08 05:50 EGXP 080550Z AUTO 06012KT 4000 // OVC002/// 11/11 Q1013
EGCC - Manchester Intl, United Kingdom
Distance from station: SSW 94mi, 152km
Updated: 08/07/2020 07:20
Overcast
Overcast
 Wind from NE
Wind: NE 7 mph , 11 km/h
Temperature: 13°C
Dew Point: 12°C
Humidity: 94%
Barometer: 1013 hPa
Clouds: Overcast
Visibility: 6 miles , 10 km
Cloud details: Overcast 518 m
2020/07/08 06:20 EGCC 080620Z AUTO 05006KT 9999 OVC017 13/12 Q1013